Time;durP1;ratioP1;P1;durP2;ratioP2;P2;SDS_P1;SDS_P2;PMS_P1;PMS_P2;Temp;Humidity;BMP_temperature;BMP_pressure;BME280_temperature;BME280_humidity;BME280_pressure;Samples;Min_cycle;Max_cycle;Signal;HPM_P1;HPM_P2
2024/01/17 00:00:18;;;;;;;;;;;;;;;-144.99;100.00;52713.09;4971914;28;19926;-76
2024/01/17 00:02:45;;;;;;;;;;;;;;;-144.99;100.00;52686.59;4970716;28;19957;-77
2024/01/17 00:05:12;;;;;;;;;;;;;;;-144.99;100.00;52696.78;4967066;28;19933;-75
2024/01/17 00:07:39;;;;;;;;;;;;;;;-144.99;100.00;52684.53;4967810;28;20013;-78
2024/01/17 00:10:06;;;;;;;;;;;;;;;-144.99;100.00;52704.94;4971242;28;19980;-79
2024/01/17 00:12:33;;;;;;;;;;;;;;;-144.99;100.00;52745.69;4975250;28;19930;-77
2024/01/17 00:14:59;;;;;;;;;;;;;;;-144.99;100.00;52704.94;4973560;28;20024;-77
2024/01/17 00:17:26;;;;;;;;;;;;;;;-144.99;100.00;52737.53;4974887;28;20020;-76
2024/01/17 00:19:52;;;;;;;;;;;;;;;-144.99;100.00;52704.94;4968779;28;19992;-76
2024/01/17 00:22:20;;;;;;;;;;;;;;;-144.99;100.00;52721.22;4971247;28;19932;-76
2024/01/17 00:24:48;;;;;;;;;;;;;;;-144.99;100.00;52713.09;4957883;28;19926;-76
2024/01/17 00:27:14;;;;;;;;;;;;;;;-144.99;100.00;52719.19;4972510;28;19937;-79
2024/01/17 00:29:41;;;;;;;;;;;;;;;-144.99;100.00;52733.47;4972396;28;19973;-75
2024/01/17 00:32:07;;;;;;;;;;;;;;;-144.99;100.00;52676.38;4971099;28;20418;-74
2024/01/17 00:34:33;;;;;;;;;;;;;;;-144.99;100.00;52690.66;4973545;28;19930;-72
2024/01/17 00:37:00;;;;;;;;;;;;;;;-144.99;100.00;52696.78;4971901;28;20323;-75
2024/01/17 00:39:28;;;;;;;;;;;;;;;-144.99;100.00;52751.81;4971828;28;20460;-75
2024/01/17 00:41:54;;;;;;;;;;;;;;;-144.99;100.00;52717.16;4974305;28;19984;-73
2024/01/17 00:44:21;;;;;;;;;;;;;;;-144.99;100.00;52719.19;4970757;28;20343;-74
2024/01/17 00:46:48;;;;;;;;;;;;;;;-144.99;100.00;52713.09;4971313;28;19932;-73
2024/01/17 00:49:14;;;;;;;;;;;;;;;-144.99;100.00;52690.66;4972337;28;19932;-74
2024/01/17 00:51:40;;;;;;;;;;;;;;;-144.99;100.00;52692.69;4971091;28;19969;-76
2024/01/17 00:54:07;;;;;;;;;;;;;;;-144.99;100.00;52700.84;4968923;28;20028;-76
2024/01/17 00:56:35;;;;;;;;;;;;;;;-144.99;100.00;52692.69;4967780;28;19930;-74
2024/01/17 00:59:02;;;;;;;;;;;;;;;-144.99;100.00;52698.81;4976648;28;19926;-77
2024/01/17 01:01:29;;;;;;;;;;;;;;;-144.99;100.00;52725.31;4971654;28;19930;-77
2024/01/17 01:03:55;;;;;;;;;;;;;;;-144.99;100.00;52664.16;4969945;28;19940;-77
2024/01/17 01:06:22;;;;;;;;;;;;;;;-144.99;100.00;52717.16;4965836;28;20100;-74
2024/01/17 01:08:48;;;;;;;;;;;;;;;-144.99;100.00;52702.88;4953762;28;19980;-75
2024/01/17 01:11:15;;;;;;;;;;;;;;;-144.99;100.00;52668.22;4971196;28;20021;-71
2024/01/17 01:13:42;;;;;;;;;;;;;;;-144.99;100.00;52704.94;4971313;28;20154;-73
2024/01/17 01:16:10;;;;;;;;;;;;;;;-144.99;100.00;52700.84;4969076;28;19936;-75
2024/01/17 01:18:36;;;;;;;;;;;;;;;-144.99;100.00;52725.31;4970830;28;20304;-74
2024/01/17 01:21:03;;;;;;;;;;;;;;;-144.99;100.00;52676.38;4970891;28;19941;-73
2024/01/17 01:23:29;;;;;;;;;;;;;;;-144.99;100.00;52715.13;4970733;28;20028;-74
2024/01/17 01:25:55;;;;;;;;;;;;;;;-144.99;100.00;52680.47;4968971;28;19926;-72
2024/01/17 01:28:22;;;;;;;;;;;;;;;-144.99;100.00;52713.09;4970735;28;19933;-76
2024/01/17 01:30:50;;;;;;;;;;;;;;;-144.99;100.00;52709.00;4970364;28;19972;-75
2024/01/17 01:33:16;;;;;;;;;;;;;;;-144.99;100.00;52739.56;4971069;28;19936;-74
2024/01/17 01:35:42;;;;;;;;;;;;;;;-144.99;100.00;52721.22;4970057;28;19929;-75
2024/01/17 01:38:09;;;;;;;;;;;;;;;-144.99;100.00;52731.44;4969794;28;19930;-77
2024/01/17 01:40:35;;;;;;;;;;;;;;;-144.99;100.00;52680.47;4970573;28;19969;-76
2024/01/17 01:43:17;;;;;;;;;;;;;;;-144.99;100.00;52727.34;4971064;28;19958;-74
2024/01/17 01:45:43;;;;;;;;;;;;;;;-144.99;100.00;52717.16;4970025;28;20029;-77
2024/01/17 01:48:11;;;;;;;;;;;;;;;-144.99;100.00;52692.69;4968308;28;20066;-75
2024/01/17 01:50:38;;;;;;;;;;;;;;;-144.99;100.00;52717.16;4969921;28;19972;-75
2024/01/17 01:53:04;;;;;;;;;;;;;;;-144.99;100.00;52717.16;4970272;28;20020;-74
2024/01/17 01:55:31;;;;;;;;;;;;;;;-144.99;100.00;52713.09;4969729;28;19941;-75
2024/01/17 01:57:58;;;;;;;;;;;;;;;-144.99;100.00;52762.00;4961742;28;20398;-75
2024/01/17 02:00:25;;;;;;;;;;;;;;;-144.99;100.00;52713.09;4968449;28;19985;-75
2024/01/17 02:02:51;;;;;;;;;;;;;;;-144.99;100.00;52684.53;4969493;28;19984;-74
2024/01/17 02:05:19;;;;;;;;;;;;;;;-144.99;100.00;52704.94;4980422;28;19934;-72
2024/01/17 02:07:46;;;;;;;;;;;;;;;-144.99;100.00;52651.94;4988867;28;19926;-74
2024/01/17 02:10:13;;;;;;;;;;;;;;;-144.99;100.00;52709.00;4981806;28;19961;-75
2024/01/17 02:12:39;;;;;;;;;;;;;;;-144.99;100.00;52717.16;4978374;28;19989;-73
2024/01/17 02:15:06;;;;;;;;;;;;;;;-144.99;100.00;52700.84;4969057;28;19926;-75
2024/01/17 02:17:33;;;;;;;;;;;;;;;-144.99;100.00;52709.00;4968975;28;19926;-72
2024/01/17 02:19:59;;;;;;;;;;;;;;;-144.99;100.00;52709.00;4967449;28;19926;-75
2024/01/17 02:22:27;;;;;;;;;;;;;;;-144.99;100.00;52719.19;4969251;28;20465;-73
2024/01/17 02:24:55;;;;;;;;;;;;;;;-144.99;100.00;52704.94;4969107;28;20374;-76
2024/01/17 02:27:21;;;;;;;;;;;;;;;-144.99;100.00;52696.78;4969415;28;20013;-75
2024/01/17 02:29:48;;;;;;;;;;;;;;;-144.99;100.00;52704.94;4968525;28;20008;-75
2024/01/17 02:32:15;;;;;;;;;;;;;;;-144.99;100.00;52709.00;4968300;28;19983;-75
2024/01/17 02:34:42;;;;;;;;;;;;;;;-144.99;100.00;52692.69;4969170;28;19981;-76
2024/01/17 02:37:09;;;;;;;;;;;;;;;-144.99;100.00;52774.22;4968871;28;19992;-75
2024/01/17 02:39:35;;;;;;;;;;;;;;;-144.99;100.00;52645.81;4968933;28;20450;-75
2024/01/17 02:42:03;;;;;;;;;;;;;;;-144.99;100.00;52727.34;4967211;28;19968;-75
2024/01/17 02:44:29;;;;;;;;;;;;;;;-144.99;100.00;52700.84;4968829;28;20004;-75
2024/01/17 02:46:56;;;;;;;;;;;;;;;-144.99;100.00;52706.97;4969280;28;20310;-75
2024/01/17 02:49:22;;;;;;;;;;;;;;;-144.99;100.00;52696.78;4967928;28;20302;-76
2024/01/17 02:51:49;;;;;;;;;;;;;;;-144.99;99.99;52711.03;4969134;28;19926;-76
2024/01/17 02:54:15;;;;;;;;;;;;;;;-144.99;100.00;52747.72;4968945;28;19933;-76
2024/01/17 02:56:42;;;;;;;;;;;;;;;-144.99;100.00;52709.00;4967873;28;20477;-76
2024/01/17 02:59:09;;;;;;;;;;;;;;;-144.99;99.79;52711.03;4968339;28;19936;-77
2024/01/17 03:01:36;;;;;;;;;;;;;;;-144.99;99.45;52696.78;4968359;28;19961;-76
2024/01/17 03:04:02;;;;;;;;;;;;;;;-144.99;99.08;52733.47;4969120;28;20021;-77
2024/01/17 03:06:29;;;;;;;;;;;;;;;-144.99;98.67;52688.63;4963870;28;19968;-77
2024/01/17 03:08:55;;;;;;;;;;;;;;;-144.99;99.08;52713.09;4967177;28;20470;-77
2024/01/17 03:11:21;;;;;;;;;;;;;;;-144.99;98.85;52713.09;4967290;28;20223;-77
2024/01/17 03:13:48;;;;;;;;;;;;;;;-144.99;98.70;52680.47;4969308;28;19957;-77
2024/01/17 03:16:19;;;;;;;;;;;;;;;-144.99;98.87;52717.16;4968182;28;19934;-77
2024/01/17 03:18:45;;;;;;;;;;;;;;;-144.99;98.72;52731.44;4967728;28;19930;-76
2024/01/17 03:21:12;;;;;;;;;;;;;;;-144.99;98.88;52700.84;4966899;28;19931;-76
2024/01/17 03:23:38;;;;;;;;;;;;;;;-144.99;98.76;52658.03;4972215;28;19988;-74
2024/01/17 03:26:05;;;;;;;;;;;;;;;-144.99;98.59;52717.16;4970164;28;20001;-75
2024/01/17 03:28:31;;;;;;;;;;;;;;;-144.99;98.16;52696.78;4969493;28;20422;-76
2024/01/17 03:30:57;;;;;;;;;;;;;;;-144.99;97.90;52694.72;4970523;28;19934;-76
2024/01/17 03:33:25;;;;;;;;;;;;;;;-144.99;98.06;52737.53;4972635;28;20016;-75
2024/01/17 03:35:52;;;;;;;;;;;;;;;-144.99;97.83;52704.94;4970463;28;20346;-75
2024/01/17 03:38:18;;;;;;;;;;;;;;;-144.99;98.14;52709.00;4973271;28;20040;-78
2024/01/17 03:40:45;;;;;;;;;;;;;;;-144.99;97.96;52684.53;4971389;28;19997;-76
2024/01/17 03:43:11;;;;;;;;;;;;;;;-144.99;97.95;52715.13;4972215;28;20390;-76
2024/01/17 03:45:38;;;;;;;;;;;;;;;-144.99;98.19;52729.38;4971984;28;19965;-76
2024/01/17 03:48:06;;;;;;;;;;;;;;;-144.99;98.00;52711.03;4972503;28;19926;-75
2024/01/17 03:50:34;;;;;;;;;;;;;;;-144.99;97.83;52713.09;4972175;28;19930;-76
2024/01/17 03:53:00;;;;;;;;;;;;;;;-144.99;98.12;52715.13;4969559;28;20025;-74
2024/01/17 03:55:26;;;;;;;;;;;;;;;-144.99;98.30;52696.78;4971623;28;20473;-75
2024/01/17 03:57:53;;;;;;;;;;;;;;;-144.99;98.44;52684.53;4966625;28;19935;-75
2024/01/17 04:00:20;;;;;;;;;;;;;;;-144.99;98.63;52721.22;4967490;28;20025;-75
2024/01/17 04:02:47;;;;;;;;;;;;;;;-144.99;98.86;52729.38;4972138;28;19926;-76
2024/01/17 04:05:14;;;;;;;;;;;;;;;-144.99;98.65;52721.22;4971962;28;20020;-75
2024/01/17 04:07:41;;;;;;;;;;;;;;;-144.99;99.00;52660.09;4972011;28;19933;-76
2024/01/17 04:10:08;;;;;;;;;;;;;;;-144.99;99.03;52770.16;4971093;28;20387;-76
2024/01/17 04:12:35;;;;;;;;;;;;;;;-144.99;99.81;52686.59;4971567;28;19958;-77
2024/01/17 04:15:01;;;;;;;;;;;;;;;-144.99;99.69;52709.00;4972885;28;19930;-77
2024/01/17 04:17:28;;;;;;;;;;;;;;;-144.99;99.98;52696.78;4972377;28;19949;-77
2024/01/17 04:19:54;;;;;;;;;;;;;;;-144.99;100.00;52717.16;4972774;28;20037;-75
2024/01/17 04:22:20;;;;;;;;;;;;;;;-144.99;100.00;52723.28;4970704;28;19927;-74
2024/01/17 04:24:49;;;;;;;;;;;;;;;-144.99;100.00;52745.69;4973097;28;20064;-76
2024/01/17 04:27:15;;;;;;;;;;;;;;;-144.99;100.00;52711.03;4967820;28;20442;-78
2024/01/17 04:29:42;;;;;;;;;;;;;;;-144.99;100.00;52692.69;4995047;28;19925;-79
2024/01/17 04:32:08;;;;;;;;;;;;;;;-144.99;100.00;52709.00;4995556;28;19922;-81
2024/01/17 04:34:34;;;;;;;;;;;;;;;-144.99;100.00;52717.16;4995305;28;19914;-79
2024/01/17 04:37:01;;;;;;;;;;;;;;;-144.99;100.00;52735.50;4973373;28;19988;-76
2024/01/17 04:39:27;;;;;;;;;;;;;;;-144.99;100.00;52741.63;4972733;28;20138;-79
2024/01/17 04:41:56;;;;;;;;;;;;;;;-144.99;100.00;52762.00;4972590;28;20339;-76
2024/01/17 04:44:23;;;;;;;;;;;;;;;-144.99;100.00;52700.84;4971408;28;19965;-76
2024/01/17 04:46:50;;;;;;;;;;;;;;;-144.99;100.00;52711.03;4971378;28;20310;-76
2024/01/17 04:49:16;;;;;;;;;;;;;;;-144.99;100.00;52717.16;4971850;28;19964;-73
2024/01/17 04:51:43;;;;;;;;;;;;;;;-144.99;100.00;52713.09;4970166;28;20017;-75
2024/01/17 04:54:10;;;;;;;;;;;;;;;-144.99;100.00;52696.78;4970176;28;19929;-75
2024/01/17 04:56:36;;;;;;;;;;;;;;;-144.99;100.00;52717.16;4969259;28;20030;-75
2024/01/17 04:59:04;;;;;;;;;;;;;;;-144.99;100.00;52723.28;4978855;28;19958;-75
2024/01/17 05:01:30;;;;;;;;;;;;;;;-144.99;99.88;52737.53;4971616;28;19969;-76
2024/01/17 05:03:57;;;;;;;;;;;;;;;-144.99;100.00;52717.16;4970878;28;19926;-77
2024/01/17 05:06:23;;;;;;;;;;;;;;;-144.99;100.00;52709.00;4964301;28;20037;-77
2024/01/17 05:08:50;;;;;;;;;;;;;;;-144.99;99.63;52733.47;4972022;28;19933;-79
2024/01/17 05:11:20;;;;;;;;;;;;;;;-144.99;99.21;52688.63;4972045;28;20016;-75
2024/01/17 05:13:47;;;;;;;;;;;;;;;-144.99;99.76;52717.16;4970405;28;19926;-76
2024/01/17 05:16:14;;;;;;;;;;;;;;;-144.99;99.56;52700.84;4969906;28;19974;-77
2024/01/17 05:18:41;;;;;;;;;;;;;;;-144.99;99.90;52711.03;4971112;28;20001;-76
2024/01/17 05:21:08;;;;;;;;;;;;;;;-144.99;99.62;52709.00;4972548;28;20095;-76
2024/01/17 05:23:34;;;;;;;;;;;;;;;-144.99;99.79;52692.69;4971999;28;20042;-77
2024/01/17 05:26:00;;;;;;;;;;;;;;;-144.99;99.37;52733.47;4966956;28;20016;-76
2024/01/17 05:28:27;;;;;;;;;;;;;;;-144.99;100.00;52713.09;4966593;28;19926;-75
2024/01/17 05:30:53;;;;;;;;;;;;;;;-144.99;100.00;52696.78;4970501;28;20413;-76
2024/01/17 05:33:21;;;;;;;;;;;;;;;-144.99;100.00;52719.19;4970951;28;19946;-76
2024/01/17 05:35:48;;;;;;;;;;;;;;;-144.99;100.00;52719.19;4968930;28;20441;-76
2024/01/17 05:38:14;;;;;;;;;;;;;;;-144.99;99.95;52688.63;4971414;28;20024;-75
2024/01/17 05:40:41;;;;;;;;;;;;;;;-144.99;100.00;52702.88;4970019;28;19973;-76
2024/01/17 05:43:07;;;;;;;;;;;;;;;-144.99;100.00;52729.38;4964378;28;20531;-75
2024/01/17 05:45:33;;;;;;;;;;;;;;;-144.99;100.00;52696.78;4964890;28;20401;-72
2024/01/17 05:48:01;;;;;;;;;;;;;;;-144.99;100.00;52684.53;4970001;28;20020;-76
2024/01/17 05:50:29;;;;;;;;;;;;;;;-144.99;100.00;52723.28;4970054;28;19926;-76
2024/01/17 05:52:55;;;;;;;;;;;;;;;-144.99;100.00;52719.19;4970533;28;19937;-73
2024/01/17 05:55:22;;;;;;;;;;;;;;;-144.99;100.00;52702.88;4969830;28;20021;-76
2024/01/17 05:57:50;;;;;;;;;;;;;;;-144.99;100.00;52696.78;4973046;28;19983;-73
2024/01/17 06:00:18;;;;;;;;;;;;;;;-144.99;99.69;52725.31;4970701;28;19937;-76
2024/01/17 06:02:44;;;;;;;;;;;;;;;-144.99;99.32;52715.13;4970749;28;20056;-73
2024/01/17 06:05:12;;;;;;;;;;;;;;;-144.99;98.84;52709.00;4967941;28;19930;-73
2024/01/17 06:07:40;;;;;;;;;;;;;;;-144.99;98.72;52713.09;4965837;28;19963;-73
2024/01/17 06:10:08;;;;;;;;;;;;;;;-144.99;98.37;52725.31;4967547;28;19926;-74
2024/01/17 06:12:34;;;;;;;;;;;;;;;-144.99;98.24;52688.63;4969395;28;19930;-72
2024/01/17 06:15:01;;;;;;;;;;;;;;;-144.99;98.40;52719.19;4969708;28;19981;-74
2024/01/17 06:17:28;;;;;;;;;;;;;;;-144.99;98.23;52704.94;4969237;28;19961;-73
2024/01/17 06:19:54;;;;;;;;;;;;;;;-144.99;98.49;52725.31;4966981;28;19933;-75
2024/01/17 06:22:21;;;;;;;;;;;;;;;-144.99;98.25;52725.31;4966327;28;19927;-76
2024/01/17 06:24:49;;;;;;;;;;;;;;;-144.99;97.95;52725.31;4283419;28;10000649;-73
2024/01/17 06:27:15;;;;;;;;;;;;;;;-144.99;98.06;52717.16;4956507;28;19934;-75
2024/01/17 06:29:42;;;;;;;;;;;;;;;-144.99;98.21;52733.47;4962291;28;20534;-74
2024/01/17 06:32:08;;;;;;;;;;;;;;;-144.99;98.42;52700.84;4962675;28;20017;-74
2024/01/17 06:34:35;;;;;;;;;;;;;;;-144.99;98.16;52706.97;4963758;28;19932;-71
2024/01/17 06:37:02;;;;;;;;;;;;;;;-144.99;98.18;52749.78;4967110;28;20414;-76
2024/01/17 06:39:29;;;;;;;;;;;;;;;-144.99;97.78;52711.03;4964281;28;20033;-75
2024/01/17 06:41:57;;;;;;;;;;;;;;;-144.99;97.68;52719.19;4961459;28;20017;-73
2024/01/17 06:44:23;;;;;;;;;;;;;;;-144.99;97.34;52719.19;4968806;28;20013;-73
2024/01/17 06:46:49;;;;;;;;;;;;;;;-144.99;97.46;52717.16;4946925;28;19961;-75
2024/01/17 06:49:16;;;;;;;;;;;;;;;-144.99;97.38;52733.47;4978161;28;19949;-76
2024/01/17 06:51:42;;;;;;;;;;;;;;;-144.99;97.34;52684.53;4987464;28;19926;-76
2024/01/17 06:54:10;;;;;;;;;;;;;;;-144.99;97.33;52762.00;4985143;28;20084;-76
2024/01/17 06:56:37;;;;;;;;;;;;;;;-144.99;97.01;52741.63;4981784;28;19933;-75
2024/01/17 06:59:05;;;;;;;;;;;;;;;-144.99;97.38;52680.47;4975037;28;20116;-75
2024/01/17 07:01:31;;;;;;;;;;;;;;;-144.99;96.85;52692.69;4968262;28;20449;-75
2024/01/17 07:03:58;;;;;;;;;;;;;;;-144.99;96.96;52692.69;4962173;28;20159;-75
2024/01/17 07:06:24;;;;;;;;;;;;;;;-144.99;96.89;52717.16;4963060;28;20415;-75
2024/01/17 07:08:51;;;;;;;;;;;;;;;-144.99;97.21;52702.88;4968088;28;19965;-76
2024/01/17 07:11:18;;;;;;;;;;;;;;;-144.99;96.87;52729.38;4978706;28;19998;-75
2024/01/17 07:13:45;;;;;;;;;;;;;;;-144.99;97.29;52709.00;4973887;28;20421;-76
2024/01/17 07:16:15;;;;;;;;;;;;;;;-144.99;97.24;52647.84;4969478;28;19992;-75
2024/01/17 07:18:42;;;;;;;;;;;;;;;-144.99;97.17;52717.16;4971144;28;20218;-75
2024/01/17 07:21:08;;;;;;;;;;;;;;;-144.99;96.70;52725.31;4962263;28;20068;-75
2024/01/17 07:23:35;;;;;;;;;;;;;;;-144.99;96.59;52704.94;4964454;28;20271;-73
2024/01/17 07:26:03;;;;;;;;;;;;;;;-144.99;96.59;52711.03;4963474;28;20281;-77
2024/01/17 07:28:30;;;;;;;;;;;;;;;-144.99;95.84;52719.19;4967803;28;20304;-78
2024/01/17 07:30:56;;;;;;;;;;;;;;;-144.99;95.39;52747.72;4968639;28;19937;-75
2024/01/17 07:33:24;;;;;;;;;;;;;;;-144.99;94.85;52711.03;4970357;28;20392;-75
2024/01/17 07:35:51;;;;;;;;;;;;;;;-144.99;94.95;52713.09;4964570;28;20418;-75
2024/01/17 07:38:17;;;;;;;;;;;;;;;-144.99;94.44;52696.78;4965918;28;19972;-73
2024/01/17 07:40:44;;;;;;;;;;;;;;;-144.99;94.27;52733.47;4965951;28;20016;-75
2024/01/17 07:43:10;;;;;;;;;;;;;;;-144.99;94.27;52711.03;4968222;28;19977;-76
2024/01/17 07:45:37;;;;;;;;;;;;;;;-144.99;93.72;52735.50;4966715;28;20272;-75
2024/01/17 07:48:04;;;;;;;;;;;;;;;-144.99;93.73;52713.09;4965651;28;19994;-74
2024/01/17 07:50:31;;;;;;;;;;;;;;;-144.99;93.94;52729.38;4965962;28;20038;-76
2024/01/17 07:52:58;;;;;;;;;;;;;;;-144.99;94.03;52704.94;4968855;28;19969;-75
2024/01/17 07:55:24;;;;;;;;;;;;;;;-144.99;94.13;52737.53;4967404;28;19930;-75
2024/01/17 07:57:51;;;;;;;;;;;;;;;-144.99;93.37;52737.53;4966859;28;20037;-75
2024/01/17 08:00:18;;;;;;;;;;;;;;;-144.99;93.12;52700.84;4967306;28;20028;-74
2024/01/17 08:02:45;;;;;;;;;;;;;;;-144.99;92.74;52696.78;4959554;28;19953;-75
2024/01/17 08:05:11;;;;;;;;;;;;;;;-144.99;93.34;52715.13;4968713;28;19930;-72
2024/01/17 08:07:39;;;;;;;;;;;;;;;-144.99;93.89;52700.84;4969565;28;20404;-74
2024/01/17 08:10:06;;;;;;;;;;;;;;;-144.99;93.34;52735.50;4970086;28;19949;-74
2024/01/17 08:12:32;;;;;;;;;;;;;;;-144.99;92.94;52704.94;4964189;28;19930;-75
2024/01/17 08:14:59;;;;;;;;;;;;;;;-144.99;93.45;52700.84;4970073;28;19970;-74
2024/01/17 08:17:25;;;;;;;;;;;;;;;-144.99;93.03;52733.47;4969211;28;20004;-73
2024/01/17 08:19:52;;;;;;;;;;;;;;;-144.99;93.24;52717.16;4961770;28;20028;-77
2024/01/17 08:22:18;;;;;;;;;;;;;;;-144.99;93.36;52739.56;4967649;28;19972;-76
2024/01/17 08:24:46;;;;;;;;;;;;;;;-144.99;93.55;52721.22;4973697;28;19970;-75
2024/01/17 08:27:12;;;;;;;;;;;;;;;-144.99;93.59;52704.94;4976416;28;19930;-73
2024/01/17 08:29:39;;;;;;;;;;;;;;;-144.99;93.67;52700.84;4978223;28;19926;-75
2024/01/17 08:32:06;;;;;;;;;;;;;;;-144.99;93.54;52733.47;4976955;28;19926;-74
2024/01/17 08:34:33;;;;;;;;;;;;;;;-144.99;93.62;52733.47;4971966;28;20418;-74
2024/01/17 08:37:00;;;;;;;;;;;;;;;-144.99;93.37;52735.50;4971352;28;19954;-76
2024/01/17 08:39:27;;;;;;;;;;;;;;;-144.99;93.79;52713.09;4968953;28;19997;-74
2024/01/17 08:41:55;;;;;;;;;;;;;;;-144.99;93.54;52735.50;4966389;28;19992;-76
2024/01/17 08:44:23;;;;;;;;;;;;;;;-144.99;93.15;52729.38;4967655;28;19952;-74
2024/01/17 08:46:49;;;;;;;;;;;;;;;-144.99;93.60;52709.00;4970299;28;19957;-77
2024/01/17 08:49:15;;;;;;;;;;;;;;;-144.99;93.12;52729.38;4971997;28;19969;-76
2024/01/17 08:51:42;;;;;;;;;;;;;;;-144.99;93.11;52713.09;4971853;28;19930;-76
2024/01/17 08:54:10;;;;;;;;;;;;;;;-144.99;93.12;52713.09;4948276;28;19930;-74
2024/01/17 08:56:36;;;;;;;;;;;;;;;-144.99;93.65;52711.03;4969496;28;19926;-74
2024/01/17 08:59:04;;;;;;;;;;;;;;;-144.99;93.07;52721.22;4971772;28;20596;-76
2024/01/17 09:01:30;;;;;;;;;;;;;;;-144.99;93.26;52729.38;4967607;28;20505;-75
2024/01/17 09:03:57;;;;;;;;;;;;;;;-144.99;92.93;52725.31;4963622;28;19974;-76
2024/01/17 09:06:23;;;;;;;;;;;;;;;-144.99;92.96;52704.94;4971439;28;19973;-75
2024/01/17 09:08:50;;;;;;;;;;;;;;;-144.99;92.78;52704.94;4971808;28;19973;-76
2024/01/17 09:11:16;;;;;;;;;;;;;;;-144.99;92.57;52711.03;4971383;28;20025;-73
2024/01/17 09:13:43;;;;;;;;;;;;;;;-144.99;92.28;52721.22;4971782;28;19952;-75
2024/01/17 09:16:11;;;;;;;;;;;;;;;-144.99;92.57;52700.84;4968838;28;19941;-75
2024/01/17 09:18:38;;;;;;;;;;;;;;;-144.99;92.10;52725.31;4969134;28;19927;-75
2024/01/17 09:21:04;;;;;;;;;;;;;;;-144.99;92.15;52682.50;4970802;28;20128;-75
2024/01/17 09:23:31;;;;;;;;;;;;;;;-144.99;92.12;52721.22;4965279;28;19969;-75
2024/01/17 09:25:57;;;;;;;;;;;;;;;-144.99;92.26;52690.66;4967668;28;20042;-73
2024/01/17 09:28:24;;;;;;;;;;;;;;;-144.99;91.96;52733.47;4981682;28;19985;-77
2024/01/17 09:30:50;;;;;;;;;;;;;;;-144.99;91.64;52745.69;4993835;28;19957;-77
2024/01/17 09:33:18;;;;;;;;;;;;;;;-144.99;91.49;52733.47;4990939;28;19945;-76
2024/01/17 09:35:44;;;;;;;;;;;;;;;-144.99;91.72;52668.22;4991360;28;19933;-76
2024/01/17 09:38:12;;;;;;;;;;;;;;;-144.99;91.52;52735.50;4977920;28;19930;-75
2024/01/17 09:40:38;;;;;;;;;;;;;;;-144.99;91.08;52741.63;4969558;28;19926;-74
2024/01/17 09:43:06;;;;;;;;;;;;;;;-144.99;90.95;52709.00;4967450;28;20367;-74
2024/01/17 09:45:33;;;;;;;;;;;;;;;-144.99;91.12;52709.00;4967197;28;19965;-74
2024/01/17 09:48:00;;;;;;;;;;;;;;;-144.99;91.19;52733.47;4970867;28;19926;-73
2024/01/17 09:50:28;;;;;;;;;;;;;;;-144.99;90.67;52735.50;4965475;28;19981;-74
2024/01/17 09:52:57;;;;;;;;;;;;;;;-144.99;90.68;52721.22;4971334;28;20338;-75
2024/01/17 09:55:26;;;;;;;;;;;;;;;-144.99;90.60;52692.69;4970393;28;19926;-75
2024/01/17 09:57:56;;;;;;;;;;;;;;;-144.99;90.43;52723.28;4964055;28;20056;-75
2024/01/17 10:00:22;;;;;;;;;;;;;;;-144.99;90.18;52774.22;4971698;28;19972;-75
2024/01/17 10:02:49;;;;;;;;;;;;;;;-144.99;89.99;52741.63;4971719;28;19972;-75
2024/01/17 10:05:17;;;;;;;;;;;;;;;-144.99;90.59;52725.31;4970002;28;20017;-76
2024/01/17 10:07:45;;;;;;;;;;;;;;;-144.99;90.71;52715.13;4976867;28;20033;-77
2024/01/17 10:10:12;;;;;;;;;;;;;;;-144.99;90.44;52729.38;4980933;28;19970;-76
2024/01/17 10:12:41;;;;;;;;;;;;;;;-144.99;90.28;52741.63;4989276;28;19915;-76
2024/01/17 10:15:13;;;;;;;;;;;;;;;-144.99;90.69;52698.81;4988121;28;19910;-76
2024/01/17 10:17:40;;;;;;;;;;;;;;;-144.99;90.50;52725.31;4967415;28;19930;-77
2024/01/17 10:20:07;;;;;;;;;;;;;;;-144.99;90.09;52696.78;4968728;28;19938;-73
2024/01/17 10:22:34;;;;;;;;;;;;;;;-144.99;89.27;52696.78;4964023;28;20314;-72
2024/01/17 10:25:02;;;;;;;;;;;;;;;-144.99;89.47;52692.69;4969442;28;20371;-77
2024/01/17 10:27:29;;;;;;;;;;;;;;;-144.99;89.97;52729.38;4967572;28;19926;-76
2024/01/17 10:29:55;;;;;;;;;;;;;;;-144.99;89.20;52672.31;4982306;28;19957;-76
2024/01/17 10:32:22;;;;;;;;;;;;;;;-144.99;89.60;52733.47;4968338;28;19961;-77
2024/01/17 10:34:48;;;;;;;;;;;;;;;-144.99;89.65;52668.22;4966208;28;19930;-76
2024/01/17 10:37:18;;;;;;;;;;;;;;;-144.99;89.16;52725.31;4968871;28;20425;-77
2024/01/17 10:39:44;;;;;;;;;;;;;;;-144.99;88.93;52676.38;4964251;28;20017;-77
2024/01/17 10:42:19;;;;;;;;;;;;;;;-144.99;88.90;52749.78;4968405;28;19926;-77
2024/01/17 10:44:45;;;;;;;;;;;;;;;-144.99;88.94;52696.78;4968370;28;19933;-77
2024/01/17 10:47:12;;;;;;;;;;;;;;;-144.99;88.86;52757.94;4965308;28;19977;-75
2024/01/17 10:49:38;;;;;;;;;;;;;;;-144.99;88.73;52709.00;4966317;28;20036;-76
2024/01/17 10:52:08;;;;;;;;;;;;;;;-144.99;88.71;52717.16;4966790;28;20000;-77
2024/01/17 10:54:35;;;;;;;;;;;;;;;-144.99;88.46;52713.09;4969345;28;20393;-75
2024/01/17 10:57:05;;;;;;;;;;;;;;;-144.99;88.19;52725.31;4967819;28;20185;-76
2024/01/17 10:59:33;;;;;;;;;;;;;;;-144.99;88.42;52711.03;4967208;28;19934;-76
2024/01/17 11:02:01;;;;;;;;;;;;;;;-144.99;88.06;52704.94;4964831;28;19934;-75
2024/01/17 11:04:30;;;;;;;;;;;;;;;-144.99;88.17;52684.53;4968420;28;19952;-75
2024/01/17 11:06:57;;;;;;;;;;;;;;;-144.99;88.28;52694.72;4968348;28;19950;-75
2024/01/17 11:09:26;;;;;;;;;;;;;;;-144.99;88.06;52702.88;4968443;28;20020;-74
2024/01/17 11:11:53;;;;;;;;;;;;;;;-144.99;87.84;52692.69;4961264;28;19926;-75
2024/01/17 11:14:20;;;;;;;;;;;;;;;-144.99;87.09;52713.09;4966864;28;20033;-75
2024/01/17 11:16:48;;;;;;;;;;;;;;;-144.99;87.47;52717.16;4967001;28;20421;-74
2024/01/17 11:19:16;;;;;;;;;;;;;;;-144.99;86.97;52717.16;4971017;28;20049;-75
2024/01/17 11:21:43;;;;;;;;;;;;;;;-144.99;87.20;52688.63;4964676;28;20029;-74
2024/01/17 11:24:15;;;;;;;;;;;;;;;-144.99;86.61;52696.78;4968811;28;19957;-74
2024/01/17 11:26:45;;;;;;;;;;;;;;;-144.99;86.32;52731.44;4966729;28;20016;-74
2024/01/17 11:29:16;;;;;;;;;;;;;;;-144.99;86.51;52696.78;4968617;28;19930;-73
2024/01/17 11:31:48;;;;;;;;;;;;;;;-144.99;86.66;52688.63;4966397;28;19960;-76
2024/01/17 11:34:16;;;;;;;;;;;;;;;-144.99;86.21;52692.69;4970074;28;20236;-75
2024/01/17 11:36:44;;;;;;;;;;;;;;;-144.99;85.92;52709.00;4969915;28;20372;-73
2024/01/17 11:39:15;;;;;;;;;;;;;;;-144.99;85.65;52725.31;4968983;28;19930;-76
2024/01/17 11:41:42;;;;;;;;;;;;;;;-144.99;85.21;52670.28;4968737;28;19930;-72
2024/01/17 11:44:08;;;;;;;;;;;;;;;-144.99;85.38;52700.84;4971012;28;20281;-75
2024/01/17 11:46:35;;;;;;;;;;;;;;;-144.99;85.51;52733.47;4971593;28;20438;-73
2024/01/17 11:49:01;;;;;;;;;;;;;;;-144.99;85.20;52711.03;4972878;28;19961;-75
2024/01/17 11:51:29;;;;;;;;;;;;;;;-144.99;84.91;52709.00;4972476;28;20463;-75
2024/01/17 11:53:56;;;;;;;;;;;;;;;-144.99;85.37;52709.00;4970216;28;19936;-75
2024/01/17 11:56:26;;;;;;;;;;;;;;;-144.99;85.21;52717.16;4969432;28;20343;-76
2024/01/17 11:58:53;;;;;;;;;;;;;;;-144.99;85.46;52694.72;4970974;28;20025;-74
2024/01/17 12:01:24;;;;;;;;;;;;;;;-144.99;85.17;52704.94;4971782;28;19937;-78
2024/01/17 12:03:51;;;;;;;;;;;;;;;-144.99;85.31;52709.00;4972578;28;19973;-75
2024/01/17 12:06:20;;;;;;;;;;;;;;;-144.99;85.22;52688.63;4970781;28;19982;-73
2024/01/17 12:08:49;;;;;;;;;;;;;;;-144.99;85.58;52733.47;4972181;28;19926;-74
2024/01/17 12:11:15;;;;;;;;;;;;;;;-144.99;85.13;52725.31;4972933;28;19973;-75
2024/01/17 12:13:42;;;;;;;;;;;;;;;-144.99;85.36;52686.59;4973441;28;19965;-74
2024/01/17 12:16:08;;;;;;;;;;;;;;;-144.99;85.24;52713.09;4972426;28;20061;-75
2024/01/17 12:18:35;;;;;;;;;;;;;;;-144.99;85.21;52749.78;4971269;28;19926;-72
2024/01/17 12:21:02;;;;;;;;;;;;;;;-144.99;84.89;52745.69;4972875;28;20021;-76